Time;durP1;ratioP1;P1;durP2;ratioP2;P2;SDS_P1;SDS_P2;PMS_P1;PMS_P2;Temp;Humidity;BMP_temperature;BMP_pressure;BME280_temperature;BME280_humidity;BME280_pressure;Samples;Min_cycle;Max_cycle;Signal;HPM_P1;HPM_P2
2021/05/16 00:02:43;;;;;;;5.78;1.40;;;;;;;9.58;100.00;99321.22;20672646;28;20507;-83
2021/05/16 00:12:45;;;;;;;5.50;1.30;;;;;;;9.64;100.00;99317.34;20599425;28;20051;-83
2021/05/16 00:22:48;;;;;;;3.15;1.50;;;;;;;9.64;100.00;99312.13;20666605;28;20053;-83
2021/05/16 00:32:50;;;;;;;5.65;1.23;;;;;;;9.58;100.00;99310.75;20654284;28;20046;-84
2021/05/16 00:42:52;;;;;;;3.90;1.38;;;;;;;9.73;100.00;99308.88;20644373;28;20101;-84
2021/05/16 00:52:54;;;;;;;3.72;1.10;;;;;;;9.64;100.00;99296.44;20572244;28;20105;-84
2021/05/16 01:03:03;;;;;;;5.47;1.45;;;;;;;9.60;100.00;99289.75;20591018;28;20046;-83
2021/05/16 01:13:06;;;;;;;7.07;1.80;;;;;;;9.47;100.00;99286.28;20638200;28;20489;-83
2021/05/16 01:23:15;;;;;;;6.22;2.05;;;;;;;9.58;100.00;99283.78;20639645;28;20469;-84
2021/05/16 01:33:18;;;;;;;4.90;1.48;;;;;;;9.67;100.00;99288.38;20664405;28;20050;-84
2021/05/16 01:43:20;;;;;;;7.78;1.70;;;;;;;9.60;100.00;99276.69;20670963;28;20046;-83
2021/05/16 01:53:24;;;;;;;7.45;1.95;;;;;;;9.58;100.00;99294.25;20664241;28;20042;-84
2021/05/16 02:03:26;;;;;;;6.45;1.83;;;;;;;9.60;100.00;99287.16;20679668;28;20572;-84
2021/05/16 02:13:28;;;;;;;5.00;1.48;;;;;;;9.54;100.00;99277.13;20650175;28;20464;-84
2021/05/16 02:23:30;;;;;;;4.88;1.90;;;;;;;9.53;100.00;99263.22;20654514;28;20057;-83
2021/05/16 02:33:33;;;;;;;5.85;1.90;;;;;;;9.56;100.00;99270.00;20659782;28;20050;-82
2021/05/16 02:43:35;;;;;;;9.30;2.40;;;;;;;9.52;100.00;99265.91;20640083;28;20556;-83
2021/05/16 02:53:37;;;;;;;7.13;2.00;;;;;;;9.52;100.00;99258.94;20649088;28;20042;-82
2021/05/16 03:03:40;;;;;;;7.18;2.10;;;;;;;9.51;100.00;99259.03;20671597;28;20100;-83
2021/05/16 03:13:42;;;;;;;8.27;2.10;;;;;;;9.42;100.00;99253.50;20614756;28;20046;-82
2021/05/16 03:23:45;;;;;;;8.77;2.40;;;;;;;9.48;100.00;99251.41;20644304;28;20050;-82
2021/05/16 03:33:47;;;;;;;6.82;2.15;;;;;;;9.57;100.00;99256.00;20672224;28;20555;-83
2021/05/16 03:43:49;;;;;;;10.52;2.50;;;;;;;9.61;100.00;99254.84;20652399;28;20055;-83
2021/05/16 03:53:52;;;;;;;7.50;2.38;;;;;;;9.63;100.00;99260.81;20661077;28;20046;-82
2021/05/16 04:03:54;;;;;;;10.48;2.35;;;;;;;9.62;100.00;99248.69;20649554;28;20104;-84
2021/05/16 04:13:56;;;;;;;7.35;1.90;;;;;;;9.69;100.00;99256.00;20658881;28;20051;-81
2021/05/16 04:23:58;;;;;;;9.00;2.08;;;;;;;9.65;100.00;99248.50;20591130;28;20051;-82
2021/05/16 04:34:01;;;;;;;7.80;1.90;;;;;;;9.78;100.00;99257.97;20642634;28;20500;-83
2021/05/16 04:44:03;;;;;;;8.65;2.47;;;;;;;9.88;100.00;99260.78;20656460;28;20046;-83
2021/05/16 04:54:06;;;;;;;9.00;2.42;;;;;;;10.02;100.00;99267.66;20592582;28;20498;-83
2021/05/16 05:04:09;;;;;;;7.65;2.13;;;;;;;10.11;100.00;99280.91;20597204;28;20057;-82
2021/05/16 05:14:11;;;;;;;6.03;2.30;;;;;;;10.31;100.00;99286.56;20648901;28;20050;-83
2021/05/16 05:24:13;;;;;;;8.98;2.60;;;;;;;10.72;100.00;99284.41;20658318;28;20112;-84
2021/05/16 05:34:15;;;;;;;6.63;1.83;;;;;;;10.59;100.00;99275.78;20681334;28;20389;-81
2021/05/16 05:44:17;;;;;;;7.80;2.00;;;;;;;10.88;100.00;99281.53;20611996;28;20046;-81
2021/05/16 05:54:19;;;;;;;7.68;2.10;;;;;;;10.82;100.00;99282.81;20645209;28;20105;-81
2021/05/16 06:04:21;;;;;;;5.60;1.80;;;;;;;11.21;100.00;99273.81;20574018;28;20047;-81
2021/05/16 06:14:23;;;;;;;7.68;2.10;;;;;;;11.17;100.00;99277.63;20615232;28;20046;-81
2021/05/16 06:24:25;;;;;;;10.00;2.15;;;;;;;11.31;100.00;99287.88;20634550;28;20046;-81
2021/05/16 06:34:27;;;;;;;8.75;2.00;;;;;;;11.67;100.00;99279.03;20586842;28;20093;-85
2021/05/16 06:44:29;;;;;;;7.78;2.08;;;;;;;11.61;100.00;99279.50;20600154;28;20112;-85
2021/05/16 06:54:31;;;;;;;8.75;2.72;;;;;;;12.56;98.72;99289.50;20558196;28;20051;-85
2021/05/16 07:04:33;;;;;;;5.63;1.67;;;;;;;12.39;95.96;99287.38;20544563;28;20047;-85
2021/05/16 07:14:35;;;;;;;8.25;2.20;;;;;;;12.69;95.50;99295.44;20581614;28;20047;-87
2021/05/16 07:24:37;;;;;;;9.95;2.70;;;;;;;12.69;95.91;99290.19;20552348;28;20103;-86
2021/05/16 07:34:39;;;;;;;6.53;1.63;;;;;;;12.84;92.37;99296.00;20565688;28;20050;-85
2021/05/16 07:44:40;;;;;;;5.88;1.70;;;;;;;13.43;88.85;99290.25;20570144;28;20077;-85
2021/05/16 07:54:42;;;;;;;8.57;1.60;;;;;;;13.96;83.75;99293.63;20592075;28;20472;-85
2021/05/16 08:04:46;;;;;;;12.07;2.03;;;;;;;14.09;80.50;99286.31;20557644;28;20057;-85
2021/05/16 08:14:48;;;;;;;14.45;2.00;;;;;;;14.29;77.74;99285.41;20580473;28;20088;-85
2021/05/16 08:24:50;;;;;;;12.35;2.28;;;;;;;13.64;79.66;99278.78;20577329;28;20460;-85
2021/05/16 08:34:52;;;;;;;10.88;2.25;;;;;;;13.77;81.00;99273.28;20554322;28;20055;-84
2021/05/16 08:44:57;;;;;;;12.43;2.93;;;;;;;14.46;76.47;99269.03;20601640;28;20397;-84
2021/05/16 08:54:59;;;;;;;9.05;1.77;;;;;;;14.00;72.17;99273.97;20571503;28;20047;-85
2021/05/16 09:05:24;;;;;;;10.15;1.95;;;;;;;14.05;75.21;99277.03;20569925;28;20054;-83
2021/05/16 09:15:26;;;;;;;10.37;2.00;;;;;;;14.05;77.96;99282.28;20561497;28;20054;-84
2021/05/16 09:25:31;;;;;;;10.52;2.45;;;;;;;14.83;75.99;99268.38;20583281;28;20051;-83
2021/05/16 09:35:39;;;;;;;8.77;1.73;;;;;;;14.88;74.90;99266.97;20576350;28;20531;-85
2021/05/16 09:45:54;;;;;;;9.35;1.80;;;;;;;14.72;75.41;99264.06;20609140;28;20141;-84
2021/05/16 09:56:22;;;;;;;12.00;2.30;;;;;;;13.88;77.75;99246.06;20586073;28;20059;-83
2021/05/16 10:06:25;;;;;;;11.32;1.80;;;;;;;14.88;71.58;99240.63;20574518;28;20043;-85
2021/05/16 10:16:32;;;;;;;9.68;1.88;;;;;;;15.76;57.72;99236.91;20606391;28;20449;-82
2021/05/16 10:26:34;;;;;;;9.25;1.90;;;;;;;15.87;58.26;99217.41;20598272;28;20125;-82
2021/05/16 10:36:42;;;;;;;7.90;1.50;;;;;;;16.30;56.05;99211.50;20577128;28;20386;-87
2021/05/16 10:46:46;;;;;;;5.20;1.50;;;;;;;16.82;56.49;99194.03;20620511;28;20401;-81
2021/05/16 10:57:19;;;;;;;8.93;1.65;;;;;;;16.49;55.33;99182.31;20592971;28;20050;-80
2021/05/16 11:07:35;;;;;;;6.60;1.88;;;;;;;15.51;58.57;99168.94;20562190;28;20090;-81
2021/05/16 11:17:38;;;;;;;7.32;1.90;;;;;;;16.70;57.09;99148.53;20611985;28;20075;-80
2021/05/16 11:27:45;;;;;;;5.47;1.38;;;;;;;16.32;55.79;99128.50;20583750;28;20539;-81
2021/05/16 11:37:51;;;;;;;7.40;1.90;;;;;;;16.39;56.31;99119.00;20580006;28;20042;-81
2021/05/16 11:47:53;;;;;;;11.73;1.80;;;;;;;16.71;55.07;99115.81;20594271;28;20118;-82
2021/05/16 11:57:58;;;;;;;6.38;1.35;;;;;;;16.62;54.23;99101.72;20573320;28;20054;-82
2021/05/16 12:08:12;;;;;;;7.20;1.65;;;;;;;17.43;50.23;99088.19;20602090;28;20061;-82
2021/05/16 12:18:33;;;;;;;4.83;1.10;;;;;;;17.08;49.60;99091.81;20606092;28;20104;-82
2021/05/16 12:28:38;;;;;;;6.47;1.33;;;;;;;18.08;51.53;99083.13;20584550;28;20050;-82
2021/05/16 12:39:05;;;;;;;6.80;2.00;;;;;;;17.89;48.76;99063.88;20624337;28;20137;-82
2021/05/16 12:49:07;;;;;;;6.70;2.13;;;;;;;17.85;48.85;99061.72;20626192;28;20082;-82
2021/05/16 12:59:11;;;;;;;6.25;1.10;;;;;;;17.75;49.41;99029.28;20575728;28;20050;-85
2021/05/16 13:09:16;;;;;;;6.50;1.45;;;;;;;17.81;48.33;99045.34;20593276;28;20047;-84
2021/05/16 13:19:32;;;;;;;6.57;1.38;;;;;;;17.74;53.00;99028.44;20581689;28;20110;-84
2021/05/16 13:29:35;;;;;;;5.97;1.30;;;;;;;18.45;50.64;99017.25;20590785;28;20092;-85
2021/05/16 13:39:38;;;;;;;5.18;1.05;;;;;;;18.43;48.77;99008.66;20627616;28;20076;-84
2021/05/16 13:49:39;;;;;;;8.43;1.50;;;;;;;18.31;49.97;99015.28;20568704;28;20051;-84
2021/05/16 13:59:42;;;;;;;3.80;1.30;;;;;;;18.86;49.49;98985.41;20585700;28;20050;-85
2021/05/16 14:09:47;;;;;;;5.78;1.00;;;;;;;18.65;49.85;98981.47;20597188;28;20069;-85
2021/05/16 14:19:49;;;;;;;7.55;1.30;;;;;;;18.90;49.11;98970.78;20610804;28;20053;-85
2021/05/16 14:29:51;;;;;;;5.20;1.20;;;;;;;18.48;51.87;98950.69;20590909;28;20094;-85
2021/05/16 14:39:53;;;;;;;6.35;1.05;;;;;;;18.67;50.37;98945.03;20609133;28;20043;-85
2021/05/16 14:49:58;;;;;;;;;;;;;;;19.09;49.01;98931.47;20598043;28;20457;-84
2021/05/16 15:00:00;;;;;;;6.70;1.67;;;;;;;18.98;49.48;98926.53;20600295;28;20323;-83
2021/05/16 15:10:03;;;;;;;3.97;0.85;;;;;;;18.73;46.51;98919.66;20577673;28;20094;-85
2021/05/16 15:20:07;;;;;;;2.97;0.90;;;;;;;18.61;48.16;98911.25;20594333;28;20086;-83
2021/05/16 15:30:10;;;;;;;5.18;1.00;;;;;;;18.36;49.31;98906.97;20580632;28;20050;-83
2021/05/16 15:40:12;;;;;;;3.85;0.90;;;;;;;17.89;51.34;98897.09;20585143;28;20047;-83
2021/05/16 15:50:14;;;;;;;5.93;1.10;;;;;;;18.41;50.77;98879.97;20572454;28;20051;-83
2021/05/16 16:00:16;;;;;;;3.53;0.98;;;;;;;18.56;48.63;98884.44;20550052;28;20092;-82
2021/05/16 16:12:29;;;;;;;4.65;0.82;;;;;;;18.56;50.86;98879.13;20626632;27;20860;-70
2021/05/16 16:22:31;;;;;;;3.35;0.70;;;;;;;18.63;50.06;98861.56;20544862;28;20043;-70
2021/05/16 16:32:34;;;;;;;2.88;1.00;;;;;;;18.49;51.07;98869.38;20552681;28;20390;-71
2021/05/16 16:42:37;;;;;;;3.97;1.25;;;;;;;17.72;54.25;98855.78;20552709;28;20055;-70
2021/05/16 16:52:43;;;;;;;2.90;0.90;;;;;;;17.14;56.20;98869.06;20549533;28;20120;-71
2021/05/16 17:02:45;;;;;;;2.22;0.63;;;;;;;16.61;55.19;98888.72;20548905;28;20086;-70
2021/05/16 17:12:47;;;;;;;2.35;0.70;;;;;;;16.43;58.88;98892.41;20548455;28;20059;-71
2021/05/16 17:22:49;;;;;;;3.65;0.88;;;;;;;16.16;60.40;98881.00;20501601;28;20059;-70
2021/05/16 17:32:51;;;;;;;5.95;1.20;;;;;;;16.05;66.41;98912.94;20596408;28;20084;-70
2021/05/16 17:42:53;;;;;;;2.63;0.80;;;;;;;15.40;69.20;98928.19;20828764;28;20050;-70
2021/05/16 17:52:57;;;;;;;3.35;0.95;;;;;;;15.06;72.06;98926.31;20830229;28;20042;-70
2021/05/16 18:03:00;;;;;;;4.32;1.48;;;;;;;14.71;77.84;98945.50;20726178;28;20055;-70
2021/05/16 18:13:02;;;;;;;6.53;3.38;;;;;;;14.08;81.45;98939.94;20507915;28;20051;-70
2021/05/16 18:23:04;;;;;;;2.95;0.90;;;;;;;13.52;81.58;98939.84;20567893;28;20051;-69
2021/05/16 18:33:09;;;;;;;0.80;0.30;;;;;;;13.19;82.88;98962.91;20487416;28;20105;-70
2021/05/16 18:43:10;;;;;;;2.72;0.57;;;;;;;13.01;85.26;98956.59;20480589;28;20051;-69
2021/05/16 18:53:12;;;;;;;2.92;0.90;;;;;;;12.87;88.18;98962.22;20582122;28;20487;-70
2021/05/16 19:03:35;;;;;;;3.63;1.20;;;;;;;12.57;93.61;98985.84;20497640;28;20046;-70
2021/05/16 19:13:37;;;;;;;2.80;1.25;;;;;;;12.40;96.02;99000.38;20522822;28;20054;-69
2021/05/16 19:23:39;;;;;;;4.25;0.90;;;;;;;12.22;100.00;99008.00;20531280;28;20047;-70
2021/05/16 19:33:40;;;;;;;3.50;1.60;;;;;;;12.12;100.00;99014.16;20519425;28;20090;-70
2021/05/16 19:43:43;;;;;;;4.28;1.05;;;;;;;12.05;100.00;99018.22;20520113;28;20453;-70
2021/05/16 19:53:44;;;;;;;5.28;1.10;;;;;;;11.97;100.00;99030.19;20549731;28;20512;-70
2021/05/16 20:03:45;;;;;;;4.00;1.08;;;;;;;11.91;100.00;99049.03;20520783;28;20093;-70
2021/05/16 20:13:47;;;;;;;4.68;1.42;;;;;;;11.91;100.00;99048.19;20519033;28;20490;-70
2021/05/16 20:23:49;;;;;;;3.53;1.50;;;;;;;11.82;100.00;99052.41;20535973;28;20047;-70
2021/05/16 20:33:50;;;;;;;4.25;1.50;;;;;;;11.73;100.00;99065.44;20543735;28;20550;-70
2021/05/16 20:43:52;;;;;;;2.72;1.20;;;;;;;11.45;100.00;99074.59;20524571;28;20544;-70
2021/05/16 20:53:54;;;;;;;3.15;1.25;;;;;;;11.23;100.00;99077.22;20534366;28;20055;-70
2021/05/16 21:03:56;;;;;;;2.55;1.10;;;;;;;11.06;100.00;99095.09;20502782;28;20043;-70
2021/05/16 21:13:59;;;;;;;1.42;0.73;;;;;;;10.86;100.00;99103.66;20503941;28;20101;-72
2021/05/16 21:24:02;;;;;;;3.53;1.63;;;;;;;10.88;100.00;99109.59;20506119;28;20051;-72
2021/05/16 21:34:04;;;;;;;2.08;1.00;;;;;;;10.84;100.00;99116.00;20494609;28;20047;-72
2021/05/16 21:44:06;;;;;;;4.38;0.80;;;;;;;10.84;100.00;99131.72;20504678;28;20629;-72
2021/05/16 21:54:08;;;;;;;6.05;1.10;;;;;;;10.84;100.00;99133.50;20503440;28;20143;-72
2021/05/16 22:04:10;;;;;;;4.38;1.38;;;;;;;10.84;100.00;99110.78;20500138;28;20449;-72
2021/05/16 22:14:12;;;;;;;4.03;1.70;;;;;;;10.90;100.00;99123.41;20488773;28;20059;-72
2021/05/16 22:24:14;;;;;;;5.68;1.80;;;;;;;10.85;100.00;99130.78;20507434;28;20051;-72
2021/05/16 22:34:16;;;;;;;7.05;2.40;;;;;;;10.95;100.00;99160.53;20514014;28;20681;-72
2021/05/16 22:44:20;;;;;;;2.92;1.40;;;;;;;10.79;100.00;99153.94;20441803;28;20082;-72
2021/05/16 22:54:22;;;;;;;2.50;1.27;;;;;;;10.92;100.00;99160.75;20413748;29;20121;-73
2021/05/16 23:04:24;;;;;;;2.65;1.30;;;;;;;11.03;100.00;99167.81;20414624;28;20461;-73
2021/05/16 23:14:26;;;;;;;3.78;1.60;;;;;;;10.92;100.00;99160.75;20412612;29;20435;-72
2021/05/16 23:24:28;;;;;;;4.00;1.33;;;;;;;10.94;100.00;99169.34;20410208;29;20105;-69
2021/05/16 23:34:32;;;;;;;2.15;0.90;;;;;;;10.86;100.00;99176.09;20552736;28;20445;-69
2021/05/16 23:44:33;;;;;;;2.40;1.00;;;;;;;10.72;100.00;99174.50;20751769;28;20059;-69
2021/05/16 23:54:36;;;;;;;4.78;1.00;;;;;;;10.82;100.00;99166.81;20799095;28;20509;-69
